createdAt,value
2018-12-22T00:00:36.482Z,47.45
2018-12-22T00:05:41.528Z,44.10
2018-12-22T00:10:46.467Z,39.53
2018-12-22T00:15:51.244Z,44.30
2018-12-22T00:20:56.613Z,44.93
2018-12-22T00:31:30.383Z,43.03
2018-12-22T00:36:35.214Z,39.25
2018-12-22T00:41:39.989Z,43.17
2018-12-22T00:46:44.854Z,43.00
2018-12-22T00:51:49.886Z,45.93
2018-12-22T00:56:54.862Z,44.50
2018-12-22T01:02:20.972Z,47.80
2018-12-22T01:13:03.747Z,40.63
2018-12-22T01:18:08.644Z,37.63
2018-12-22T01:23:13.437Z,34.20
2018-12-22T01:28:18.270Z,35.47
2018-12-22T01:33:23.246Z,43.67
2018-12-22T01:38:28.076Z,47.03
2018-12-22T01:43:32.946Z,37.28
2018-12-22T01:54:16.116Z,37.80
2018-12-22T01:59:20.907Z,42.50
2018-12-22T02:04:25.628Z,44.70
2018-12-22T02:09:30.377Z,41.42
2018-12-22T02:14:35.327Z,51.50
2018-12-22T02:19:40.153Z,43.78
2018-12-22T02:24:45.029Z,40.10
2018-12-22T02:29:49.986Z,47.10
2018-12-22T02:34:54.855Z,48.27
2018-12-22T02:39:59.815Z,50.80
2018-12-22T02:45:05.192Z,48.07
2018-12-22T02:50:11.496Z,45.00
2018-12-22T03:00:50.867Z,42.73
2018-12-22T03:05:55.782Z,43.27
2018-12-22T03:11:00.652Z,42.40
2018-12-22T03:16:05.597Z,51.67
2018-12-22T03:21:10.541Z,47.90
2018-12-22T03:26:15.472Z,49.33
2018-12-22T03:31:20.238Z,44.47
2018-12-22T03:41:53.807Z,47.47
2018-12-22T03:46:58.719Z,37.73
2018-12-22T03:52:03.757Z,34.70
2018-12-22T03:57:08.511Z,35.27
2018-12-22T04:02:13.447Z,43.37
2018-12-22T04:07:18.312Z,45.43
2018-12-22T04:12:23.157Z,42.50
2018-12-22T04:17:28.128Z,50.50
2018-12-22T04:22:33.056Z,42.30
2018-12-22T04:27:37.927Z,41.27
2018-12-22T04:32:42.752Z,33.93
2018-12-22T04:37:47.577Z,42.43
2018-12-22T04:42:52.372Z,45.03
2018-12-22T04:47:57.247Z,39.53
2018-12-22T04:53:02.031Z,47.30
2018-12-22T04:58:06.850Z,35.87
2018-12-22T05:03:11.764Z,42.77
2018-12-22T05:08:16.666Z,41.33
2018-12-22T05:13:21.632Z,49.13
2018-12-22T05:18:26.600Z,34.33
2018-12-22T05:23:31.340Z,48.60
2018-12-22T05:28:36.406Z,35.33
2018-12-22T05:33:41.305Z,47.50
2018-12-22T05:38:46.182Z,43.92
2018-12-22T05:43:51.036Z,43.47
2018-12-22T05:48:56.107Z,41.80
2018-12-22T05:54:00.980Z,43.37
2018-12-22T06:04:33.579Z,31.83
2018-12-22T06:09:38.472Z,48.10
2018-12-22T06:14:43.534Z,48.77
2018-12-22T06:19:48.275Z,42.87
2018-12-22T06:24:53.175Z,46.63
2018-12-22T06:29:58.085Z,38.03
2018-12-22T06:35:03.009Z,33.23
2018-12-22T06:40:08.426Z,33.07
2018-12-22T06:45:13.235Z,28.57
2018-12-22T06:50:18.124Z,26.73
2018-12-22T06:55:23.096Z,27.90
2018-12-22T07:00:28.314Z,27.63
2018-12-22T07:05:33.185Z,33.13
2018-12-22T07:10:37.835Z,28.30
2018-12-22T07:15:42.794Z,27.03
2018-12-22T07:20:47.684Z,26.93
2018-12-22T07:25:52.610Z,27.17
2018-12-22T07:30:57.385Z,36.00
2018-12-22T07:36:02.260Z,38.37
2018-12-22T07:41:07.219Z,39.73
2018-12-22T07:46:12.039Z,33.85
2018-12-22T07:51:16.904Z,35.37
2018-12-22T07:56:21.669Z,33.37
2018-12-22T08:01:26.786Z,36.67
2018-12-22T08:06:31.884Z,21.90
2018-12-22T08:11:36.750Z,32.57
2018-12-22T08:16:41.655Z,26.17
2018-12-22T08:21:46.665Z,25.37
2018-12-22T08:26:51.485Z,34.43
2018-12-22T08:31:56.224Z,33.90
2018-12-22T08:37:01.005Z,34.50
2018-12-22T08:42:05.915Z,32.77
2018-12-22T08:47:10.760Z,30.00
2018-12-22T08:52:15.669Z,27.83
2018-12-22T08:57:20.577Z,30.43
2018-12-22T09:02:25.941Z,27.30
2018-12-22T09:07:30.897Z,26.80
2018-12-22T09:12:35.639Z,36.30
2018-12-22T09:17:40.434Z,31.80
2018-12-22T09:22:45.259Z,35.73
2018-12-22T09:27:50.145Z,40.97
2018-12-22T09:32:54.996Z,38.00
2018-12-22T09:37:59.892Z,34.97
2018-12-22T09:43:04.849Z,34.53
2018-12-22T09:48:09.799Z,35.67
2018-12-22T09:53:14.649Z,31.70
2018-12-22T09:58:19.487Z,19.97
2018-12-22T10:03:24.373Z,30.65
2018-12-22T10:08:29.269Z,30.13
2018-12-22T10:13:34.133Z,28.57
2018-12-22T10:18:39.029Z,27.82
2018-12-22T10:23:43.908Z,30.73
2018-12-22T10:28:48.469Z,27.50
2018-12-22T10:33:53.096Z,27.43
2018-12-22T10:38:57.933Z,28.93
2018-12-22T10:44:02.750Z,32.20
2018-12-22T10:49:07.538Z,28.70
2018-12-22T10:54:12.428Z,29.30
2018-12-22T10:59:17.244Z,32.33
2018-12-22T11:04:22.018Z,30.50
2018-12-22T11:09:27.255Z,20.27
2018-12-22T11:14:32.093Z,26.48
2018-12-22T11:19:36.974Z,23.67
2018-12-22T11:24:42.233Z,27.00
2018-12-22T11:29:47.183Z,23.67
2018-12-22T11:34:51.968Z,21.17
2018-12-22T11:39:56.958Z,19.37
2018-12-22T11:45:01.560Z,25.07
2018-12-22T11:50:07.770Z,32.67
2018-12-22T11:55:12.668Z,30.53
2018-12-22T12:00:17.586Z,32.43
2018-12-22T12:05:22.373Z,22.27
2018-12-22T12:10:27.193Z,29.03
2018-12-22T12:15:39.883Z,31.67
2018-12-22T12:20:44.764Z,30.53
2018-12-22T12:25:49.673Z,36.48
2018-12-22T12:30:54.463Z,31.83
2018-12-22T12:35:59.324Z,25.50
2018-12-22T12:41:04.199Z,32.57
2018-12-22T12:46:08.979Z,23.37
2018-12-22T12:51:13.840Z,21.57
2018-12-22T12:56:18.709Z,33.60
2018-12-22T13:01:24.469Z,31.13
2018-12-22T13:07:32.319Z,26.57
2018-12-22T13:12:44.066Z,27.22
2018-12-22T13:17:48.954Z,30.67
2018-12-22T13:22:53.820Z,27.13
2018-12-22T13:27:58.594Z,25.63
2018-12-22T13:33:03.416Z,21.53
2018-12-22T13:38:08.320Z,22.00
2018-12-22T13:43:13.209Z,20.23
2018-12-22T13:48:18.255Z,22.67
2018-12-22T13:53:23.179Z,22.47
2018-12-22T13:58:28.385Z,18.73
2018-12-22T14:03:36.864Z,20.03
2018-12-22T14:08:41.769Z,16.65
2018-12-22T14:13:46.539Z,16.13
2018-12-22T14:18:56.997Z,21.27
2018-12-22T14:24:10.239Z,22.13
2018-12-22T14:29:15.073Z,23.55
2018-12-22T14:34:24.959Z,22.43
2018-12-22T14:39:29.811Z,23.40
2018-12-22T14:44:34.773Z,19.77
2018-12-22T14:49:39.599Z,20.68
2018-12-22T14:54:44.450Z,24.73
2018-12-22T14:59:49.454Z,26.50
2018-12-22T15:04:54.304Z,31.60
2018-12-22T15:09:59.074Z,28.60
2018-12-22T15:15:04.035Z,25.70
2018-12-22T15:20:12.874Z,26.17
2018-12-22T15:25:17.854Z,31.17
2018-12-22T15:30:22.855Z,27.10
2018-12-22T15:35:27.704Z,26.83
2018-12-22T15:40:32.583Z,29.17
2018-12-22T15:45:37.403Z,30.83
2018-12-22T15:50:42.968Z,27.00
2018-12-22T15:55:47.891Z,29.87
2018-12-22T16:00:52.688Z,27.73
2018-12-22T16:05:57.507Z,22.30
2018-12-22T16:11:02.294Z,31.33
2018-12-22T16:16:07.708Z,22.17
2018-12-22T16:32:09.354Z,28.13
2018-12-22T16:37:14.343Z,20.93
2018-12-22T16:42:19.189Z,28.07
2018-12-22T16:47:23.853Z,25.00
2018-12-22T16:52:28.663Z,21.73
2018-12-22T16:57:33.553Z,24.90
2018-12-22T17:02:47.532Z,19.23
2018-12-22T17:07:52.478Z,24.47
2018-12-22T17:12:57.366Z,24.40
2018-12-22T17:18:02.260Z,23.07
2018-12-22T17:23:14.391Z,22.20
2018-12-22T17:28:19.273Z,20.40
2018-12-22T17:33:24.290Z,23.43
2018-12-22T17:38:29.709Z,22.87
2018-12-22T17:43:34.964Z,17.48
2018-12-22T17:48:39.844Z,18.85
2018-12-22T17:53:44.623Z,29.63
2018-12-22T17:58:49.520Z,23.07
2018-12-22T18:03:54.460Z,31.80
2018-12-22T18:08:59.405Z,31.07
2018-12-22T18:14:04.280Z,27.80
2018-12-22T18:19:09.225Z,35.03
2018-12-22T18:24:14.100Z,36.30
2018-12-22T18:29:18.951Z,26.93
2018-12-22T18:34:23.855Z,49.25
2018-12-22T18:39:28.636Z,37.60
2018-12-22T18:44:33.499Z,25.97
2018-12-22T18:49:38.439Z,29.57
2018-12-22T18:54:43.315Z,30.10
2018-12-22T18:59:51.300Z,39.07
2018-12-22T19:04:56.175Z,28.53
2018-12-22T19:10:01.020Z,35.07
2018-12-22T19:15:06.045Z,35.20
2018-12-22T19:20:15.280Z,36.90
2018-12-22T19:25:20.149Z,31.57
2018-12-22T19:30:25.113Z,26.10
2018-12-22T19:35:30.094Z,47.53
2018-12-22T19:40:34.945Z,38.47
2018-12-22T19:45:39.835Z,37.00
2018-12-22T19:50:44.760Z,27.70
2018-12-22T19:55:49.694Z,41.43
2018-12-22T20:00:54.529Z,35.07
2018-12-22T20:05:59.449Z,35.50
2018-12-22T20:11:04.426Z,39.43
2018-12-22T20:16:09.384Z,36.57
2018-12-22T20:21:14.401Z,34.33
2018-12-22T20:26:19.253Z,36.23
2018-12-22T20:31:25.024Z,35.77
2018-12-22T20:36:30.029Z,32.40
2018-12-22T20:41:35.028Z,28.17
2018-12-22T20:46:39.789Z,32.80
2018-12-22T20:51:44.749Z,30.52
2018-12-22T20:56:49.799Z,26.43
2018-12-22T21:01:54.710Z,21.90
2018-12-22T21:06:59.769Z,34.43
2018-12-22T21:12:04.794Z,31.90
2018-12-22T21:17:09.634Z,22.93
2018-12-22T21:22:14.414Z,31.90
2018-12-22T21:27:19.424Z,15.60
2018-12-22T21:32:24.274Z,18.27
2018-12-22T21:37:29.380Z,9.73
2018-12-22T21:42:34.309Z,14.80
2018-12-22T21:47:39.252Z,20.30
2018-12-22T21:52:44.304Z,9.30
2018-12-22T21:57:50.199Z,7.17
2018-12-22T22:02:55.034Z,24.03
2018-12-22T22:07:59.899Z,13.18
2018-12-22T22:13:04.915Z,16.43
2018-12-22T22:18:09.710Z,19.37
2018-12-22T22:23:18.878Z,19.87
2018-12-22T22:28:21.485Z,10.77
2018-12-22T22:33:27.561Z,19.60
2018-12-22T22:38:32.756Z,10.73
2018-12-22T22:43:37.640Z,12.07
2018-12-22T22:48:42.361Z,15.40
2018-12-22T22:53:47.141Z,16.57
2018-12-22T22:58:52.131Z,13.98
2018-12-22T23:03:57.070Z,9.60
2018-12-22T23:09:02.113Z,12.20
2018-12-22T23:14:07.104Z,7.83
2018-12-22T23:19:12.094Z,13.53
2018-12-22T23:24:16.888Z,12.43
2018-12-22T23:29:21.739Z,11.10
2018-12-22T23:34:27.579Z,9.13
2018-12-22T23:39:32.639Z,15.95
2018-12-22T23:44:37.504Z,7.40
2018-12-22T23:49:42.239Z,11.70
2018-12-22T23:54:47.174Z,2.33
2018-12-22T23:59:52.054Z,5.83
